Lykens, PA (17048)

10:03 AM EDT on August 21, 2014 (GMT -0400)
South Earth Road Terminus | Change Station
CLOSE
Current Station
Personal Weather Station
Location: Halifax, PA
Elevation: 935 ft
Nearby Weather Stations

Elev 935 ft 40.51 °N, 76.79 °W | Updated 6 seconds ago

Overcast
Overcast
76.3 °F
Feels Like 77 °F
N
0.0
Wind Variable Wind from WNW
Gusts 0.0 mph

Today
High -- | Low -- °F
--% Chance of Precip.
Yesterday
High -- | Low -- °F
Precip. -- in
6:23 AM 7:55 PM
Waning Crescent, 14% visible
Pressure 30.05 in
Visibility 10.0 miles
Clouds Few 1300 ft
Heat Index 77 °F
Dew Point 40 °F
Humidity 27%
Rainfall 0.00 in
Snow Depth Not available.
UV 5 out of 12
Pollen 8.60 out of 12
Ozone Good
PM2.5 Moderate
Flu Activity Not available.
METAR KMUI 211358Z AUTO 00000KT 10SM -RA FEW013 23/22 A3005 RMK AO2 RAB1303DZB1332E1334 SLP176 P0000 T02320223 $

More Conditions Fewer Conditions

Pressure 30.05 in
Visibility 10.0 miles
Clouds Few 1300 ft
Heat Index 77 °F
Dew Point 40 °F
Humidity 27%
Rainfall 0.00 in
Snow Depth Not available.
UV 5 out of 12
Pollen 8.60 out of 12
Ozone Good
PM2.5 Moderate
Flu Activity Not available.
METAR KMUI 211358Z AUTO 00000KT 10SM -RA FEW013 23/22 A3005 RMK AO2 RAB1303DZB1332E1334 SLP176 P0000 T02320223 $

More Conditions Fewer Conditions

10-Day Weather Forecast

Almanac

Astronomy

Aug. 21, 2014 Rise Set
Actual Time 6:23 AM EDT 7:55 PM EDT
Civil Twilight 5:54 AM EDT 8:24 PM EDT
Nautical Twilight 5:19 AM EDT 8:59 PM EDT
Astronomical Twilight 4:42 AM EDT 9:36 PM EDT
Moon 2:51 AM EDT 5:23 PM EDT
Length of Visible Light 14h 30m
Length of Day
13h 32m
Tomorrow will be 2m 28s shorter.
Waning Crescent, 14% of the Moon is Illuminated
Today
Waning Crescent
Aug 25
New
Sep 2
First Quarter
Sep 8
Full
Sep 15
Last Quarter

Today's Extremes

State Highs State Lows

Community

WunderPhotos

Upload Photos

1,745,925 photos uploaded!

WunderBlogs® & News

Nearby

Air Quality

  Air Quality AQ Index Pollutant
Yesterday Moderate
PM2.5
Yesterday Good
OZONE
Current Moderate
PM2.5
Current Good
OZONE
Thursday Moderate
PM2.5
Thursday Good
OZONE
Friday Moderate
PM2.5
Friday Good
OZONE

Snow Depth

Station Depth Elevation
No new snow has been reported.

Earthquake Activity

City Distance Mag. Time & Date
No recent earthquake activity has been reported nearby.
Minimum magnitude displayed is 2.5.

Coastal Water Temperatures

Place Temperature
No Stations Reporting

Nearby Weather Stations